Main page
METAR-TAF:

METAR-TAF

Airports :

Sri Guru Ram Dass Jee International Airport

Amritsar, India

latitude: 31-38N, longitude: 074-52E, elevation: 229 m

Current weather observation

The report was made 10 minutes ago, at 20:00 UTC
Wind 7 kt from the East
Temperature 11°C
Humidity 100%
Pressure 1006 hPa
Visibility: 1900 m
Scattered clouds at a height of 3000 ft
Overcast at a height of 9000 ft
heavy rain

METAR: VIAR 222000Z 09007KT 1900 R34/2000 +RA SCT030 OVC090 11/11 Q1006 NOSIG

Time: 01:40 (20:10 UTC)

Forecast

The report was made 3 hours and 10 minutes ago, at 17:00 UTC
Forecast valid from 22 at 18 UTC to 23 at 03 UTC
Wind 6 kt from the East/Northeast
Visibility: 1000 m
Scattered clouds at a height of 2500 ft
Overcast at a height of 9000 ft
mist, rain

TAF: VIAR 221700Z 2218/2303 07006KT 1000 BR RA SCT025 OVC090

Weather observations and forecasts of more than 4000 airports (METAR and TAF reports).

The available stations are represented by yellow and red dots on the map.

Hover mouse over dot to see the name of the station.

Then click to see weather observations and forecasts.

To change the map : click on the green buttons with a black cross to zoom in, on the green button with a dash to zoom out, or on the green arrows for adjacent maps.


METAR-TAF: